Time;durP1;ratioP1;P1;durP2;ratioP2;P2;SDS_P1;SDS_P2;PMS_P1;PMS_P2;Temp;Humidity;BMP_temperature;BMP_pressure;BME280_temperature;BME280_humidity;BME280_pressure;Samples;Min_cycle;Max_cycle;Signal;HPM_P1;HPM_P2
2022/07/28 00:03:05;;;;;;;5.72;2.83;;;;;;;17.32;83.62;99202.83;4108814;85;21092;-82
2022/07/28 00:09:07;;;;;;;8.43;3.30;;;;;;;17.22;83.98;99201.00;4094839;85;21721;-82
2022/07/28 00:15:10;;;;;;;6.62;2.87;;;;;;;17.21;84.26;99198.83;4087236;86;20999;-82
2022/07/28 00:21:11;;;;;;;7.90;3.02;;;;;;;17.19;85.04;99201.83;4090188;86;21030;-83
2022/07/28 00:27:13;;;;;;;5.40;2.60;;;;;;;17.03;84.81;99198.27;4090600;86;21039;-82
2022/07/28 00:33:15;;;;;;;6.85;2.95;;;;;;;16.89;84.89;99215.02;4107096;86;21532;-83
2022/07/28 00:39:16;;;;;;;8.53;2.70;;;;;;;16.94;85.62;99211.78;4097197;86;21035;-82
2022/07/28 00:45:21;;;;;;;6.03;2.00;;;;;;;16.93;85.59;99219.11;4113000;86;21667;-82
2022/07/28 00:51:25;;;;;;;5.72;2.10;;;;;;;16.87;85.61;99228.46;4111077;85;21065;-83
2022/07/28 00:57:27;;;;;;;3.70;2.30;;;;;;;16.82;85.27;99225.34;4112410;86;21047;-83
2022/07/28 01:03:31;;;;;;;4.17;2.42;;;;;;;16.73;84.95;99212.61;4108720;86;21073;-83
2022/07/28 01:09:57;;;;;;;5.45;2.17;;;;;;;16.70;84.67;99216.98;4102531;86;21131;-82
2022/07/28 01:16:04;;;;;;;6.37;2.60;;;;;;;16.76;85.11;99222.25;4102557;86;21055;-82
2022/07/28 01:22:09;;;;;;;6.80;2.43;;;;;;;16.77;85.28;99219.66;4112529;86;21046;-82
2022/07/28 01:28:31;;;;;;;4.37;1.95;;;;;;;16.79;85.52;99229.72;4106979;86;22674;-82
2022/07/28 01:34:38;;;;;;;4.58;1.85;;;;;;;16.84;85.76;99234.02;4086338;86;21090;-82
2022/07/28 01:40:44;;;;;;;4.22;1.95;;;;;;;16.84;84.80;99232.64;4103195;86;21066;-84
2022/07/28 01:46:47;;;;;;;3.17;1.65;;;;;;;16.80;84.11;99227.75;4112435;86;22171;-83
2022/07/28 01:52:50;;;;;;;2.10;1.20;;;;;;;16.75;83.75;99212.41;4101937;86;21077;-82
2022/07/28 01:58:54;;;;;;;3.45;1.40;;;;;;;16.72;82.83;99200.78;4090901;86;21062;-82
2022/07/28 02:04:57;;;;;;;7.03;1.72;;;;;;;16.75;83.44;99220.70;4108401;86;21048;-82
2022/07/28 02:17:24;;;;;;;9.58;1.55;;;;;;;16.79;83.60;99226.95;4090033;86;21059;-82
2022/07/28 02:23:27;;;;;;;2.87;1.22;;;;;;;16.78;83.03;99221.84;4110050;86;21014;-83
2022/07/28 02:29:34;;;;;;;2.60;0.95;;;;;;;16.79;83.37;99233.88;4107755;86;21074;-83
2022/07/28 02:35:56;;;;;;;;;;;;;;;16.75;82.71;99237.28;4064998;86;21084;-82
2022/07/28 02:42:11;;;;;;;2.45;1.45;;;;;;;16.66;82.93;99236.19;4082752;86;20762;-82
2022/07/28 02:48:17;;;;;;;3.80;1.10;;;;;;;16.66;83.95;99239.72;4092949;86;21093;-82
2022/07/28 02:54:19;;;;;;;2.70;1.47;;;;;;;16.65;83.26;99251.98;4098585;86;21549;-82
2022/07/28 03:00:22;;;;;;;6.72;1.30;;;;;;;16.63;83.64;99252.20;3976822;89;21628;-81
2022/07/28 03:06:24;;;;;;;2.65;1.42;;;;;;;16.69;83.96;99260.24;4083507;86;21096;-82
2022/07/28 03:12:26;;;;;;;4.92;1.45;;;;;;;16.60;83.81;99260.70;4114752;86;21018;-82
2022/07/28 03:18:28;;;;;;;2.77;1.40;;;;;;;16.54;83.98;99260.16;4101088;86;21108;-83
2022/07/28 03:24:34;;;;;;;4.22;1.32;;;;;;;16.50;84.40;99280.14;4116137;85;21070;-83
2022/07/28 03:30:41;;;;;;;3.12;1.40;;;;;;;16.44;84.29;99284.51;4094972;83;41324;-82
2022/07/28 03:36:45;;;;;;;;;;;;;;;16.26;84.43;99274.97;4099930;85;21099;-82
2022/07/28 03:42:48;;;;;;;8.00;2.10;;;;;;;16.25;85.39;99278.94;4095236;85;20123;-83
2022/07/28 03:48:49;;;;;;;2.27;1.22;;;;;;;16.29;84.97;99287.17;4098056;85;21103;-82
2022/07/28 03:54:51;;;;;;;3.30;1.60;;;;;;;16.34;85.40;99293.66;4096160;85;21936;-83
2022/07/28 04:00:53;;;;;;;1.80;1.35;;;;;;;16.40;85.38;99298.93;4088855;85;21032;-82
2022/07/28 04:06:54;;;;;;;4.80;1.65;;;;;;;16.44;85.12;99299.16;4134007;85;21043;-82
2022/07/28 04:12:58;;;;;;;6.97;1.55;;;;;;;16.43;85.56;99293.39;4087950;85;21055;-82
2022/07/28 04:18:59;;;;;;;4.53;1.70;;;;;;;16.47;86.10;99294.19;4092030;85;21542;-83
2022/07/28 04:25:00;;;;;;;6.70;1.65;;;;;;;16.42;85.28;99289.65;4093357;85;21131;-83
2022/07/28 04:31:01;;;;;;;5.55;1.80;;;;;;;16.39;85.32;99300.13;4081899;84;21024;-82
2022/07/28 04:37:03;;;;;;;3.37;1.17;;;;;;;16.38;85.26;99309.01;4059695;86;21047;-83
2022/07/28 04:43:04;;;;;;;5.60;1.70;;;;;;;16.47;84.76;99301.69;4073736;86;21026;-82
2022/07/28 04:49:11;;;;;;;4.72;1.40;;;;;;;16.55;84.90;99305.97;4077237;86;20996;-82
2022/07/28 04:55:11;;;;;;;4.75;1.98;;;;;;;16.69;85.02;99303.09;4078457;86;21547;-81
2022/07/28 05:01:12;;;;;;;5.37;1.67;;;;;;;16.83;84.82;99305.73;4078065;86;21036;-83
2022/07/28 05:07:13;;;;;;;3.70;1.65;;;;;;;16.89;83.96;99314.56;4070223;86;21154;-81
2022/07/28 05:13:15;;;;;;;4.15;1.70;;;;;;;16.95;83.08;99327.33;4086268;86;21016;-82
2022/07/28 05:19:16;;;;;;;4.67;1.98;;;;;;;16.96;82.54;99328.92;4085223;86;21203;-83
2022/07/28 05:25:21;;;;;;;6.15;1.57;;;;;;;17.01;82.11;99345.84;4099766;86;21017;-83
2022/07/28 05:31:23;;;;;;;6.12;1.70;;;;;;;17.02;81.59;99343.26;4077571;84;21088;-82
2022/07/28 05:37:24;;;;;;;6.87;1.90;;;;;;;17.06;80.78;99346.00;4095457;86;21076;-84
2022/07/28 05:43:25;;;;;;;4.30;1.52;;;;;;;17.10;80.75;99347.53;4086306;84;21079;-83
2022/07/28 05:49:26;;;;;;;2.70;1.55;;;;;;;17.13;80.44;99339.03;4045289;87;21075;-82
2022/07/28 05:55:28;;;;;;;9.10;1.60;;;;;;;17.23;80.72;99348.42;4076680;86;21034;-82
2022/07/28 06:01:36;;;;;;;3.85;1.50;;;;;;;17.40;79.75;99359.91;4011092;86;21115;-83
2022/07/28 06:07:38;;;;;;;3.80;2.33;;;;;;;17.44;79.48;99358.70;4079955;84;21125;-83
2022/07/28 06:13:39;;;;;;;3.92;1.60;;;;;;;17.48;79.26;99364.20;4013341;87;21036;-81
2022/07/28 06:19:42;;;;;;;6.20;1.47;;;;;;;17.60;79.58;99367.81;4019509;86;21629;-83
2022/07/28 06:25:44;;;;;;;6.15;1.77;;;;;;;17.70;79.56;99371.84;4079603;86;21073;-83
2022/07/28 06:31:45;;;;;;;8.63;1.85;;;;;;;17.73;78.72;99375.78;4007330;84;21088;-83
2022/07/28 06:37:48;;;;;;;7.17;1.60;;;;;;;17.78;78.21;99383.02;4077982;84;21145;-82
2022/07/28 06:43:51;;;;;;;3.25;1.40;;;;;;;17.94;78.37;99383.82;4027414;87;21079;-84
2022/07/28 06:49:52;;;;;;;5.65;2.15;;;;;;;18.00;78.76;99387.70;4021782;87;21484;-83
2022/07/28 06:55:53;;;;;;;11.85;2.30;;;;;;;18.09;78.64;99383.81;4020693;87;21565;-82
2022/07/28 07:02:00;;;;;;;5.53;1.87;;;;;;;18.10;77.94;99386.17;4022030;87;21052;-83
2022/07/28 07:07:58;;;;;;;8.18;2.52;;;;;;;18.14;77.85;99386.13;4024449;87;22426;-85
2022/07/28 07:13:59;;;;;;;9.18;2.62;;;;;;;18.20;77.49;99385.26;4030145;87;21159;-83
2022/07/28 07:20:01;;;;;;;4.83;1.80;;;;;;;18.38;77.08;99371.19;4020911;87;21076;-84
2022/07/28 07:26:03;;;;;;;4.35;1.47;;;;;;;18.52;76.66;99377.33;4022896;87;21855;-83
2022/07/28 07:32:04;;;;;;;7.22;2.52;;;;;;;18.84;76.63;99371.27;4026280;87;21072;-83
2022/07/28 07:38:06;;;;;;;10.28;1.90;;;;;;;19.40;76.49;99363.40;4097294;85;21049;-83
2022/07/28 07:44:08;;;;;;;9.83;2.50;;;;;;;19.74;76.07;99365.91;4072045;86;21967;-83
2022/07/28 07:50:10;;;;;;;6.30;1.75;;;;;;;20.28;75.14;99358.06;4098329;86;21066;-85
2022/07/28 07:56:13;;;;;;;4.47;1.62;;;;;;;20.90;74.41;99359.16;4088666;84;21077;-84
2022/07/28 08:02:14;;;;;;;7.30;2.22;;;;;;;21.41;73.59;99363.22;4132575;85;21151;-83
2022/07/28 08:08:15;;;;;;;6.40;1.80;;;;;;;21.81;72.77;99359.58;4094052;84;21044;-82
2022/07/28 08:14:17;;;;;;;7.75;2.52;;;;;;;22.07;71.42;99363.98;4119072;84;21003;-83
2022/07/28 08:20:18;;;;;;;6.35;2.52;;;;;;;22.38;71.01;99366.42;4091942;86;20994;-85
2022/07/28 08:26:19;;;;;;;6.22;2.02;;;;;;;22.47;69.90;99367.16;4090904;84;21570;-83
2022/07/28 08:32:21;;;;;;;7.17;1.90;;;;;;;22.63;69.50;99363.66;4084997;84;21486;-83
2022/07/28 08:38:22;;;;;;;5.50;2.27;;;;;;;22.81;68.54;99363.89;4068989;86;21094;-84
2022/07/28 08:44:31;;;;;;;5.92;2.00;;;;;;;22.84;66.35;99362.20;4087300;86;21038;-83
2022/07/28 08:50:33;;;;;;;5.53;2.50;;;;;;;22.82;67.25;99363.27;4091520;86;21548;-83
2022/07/28 08:56:40;;;;;;;7.17;2.00;;;;;;;22.63;63.46;99357.33;4076324;86;21511;-84
2022/07/28 09:02:42;;;;;;;;;;;;;;;22.54;64.57;99353.00;4083253;86;21142;-84
2022/07/28 09:08:43;;;;;;;13.43;3.27;;;;;;;22.52;64.00;99349.27;4079898;86;20246;-85
2022/07/28 09:14:45;;;;;;;7.28;2.52;;;;;;;22.58;64.51;99339.11;4081740;86;21518;-83
2022/07/28 09:20:46;;;;;;;6.83;2.40;;;;;;;22.97;64.53;99345.59;4079583;86;21146;-83
2022/07/28 09:27:07;;;;;;;6.53;2.62;;;;;;;23.22;63.53;99349.72;4079704;86;21649;-84
2022/07/28 09:33:31;;;;;;;6.15;2.40;;;;;;;23.43;61.60;99344.69;4090976;86;21038;-85
2022/07/28 09:39:35;;;;;;;4.80;2.17;;;;;;;24.00;62.92;99349.79;4093886;86;21042;-85
2022/07/28 09:45:36;;;;;;;6.90;2.08;;;;;;;24.67;59.75;99342.38;4095919;85;21053;-85
2022/07/28 09:51:37;;;;;;;5.58;2.05;;;;;;;24.67;59.75;99342.38;4077574;86;21056;-85
2022/07/28 09:57:40;;;;;;;5.55;2.35;;;;;;;25.07;59.77;99340.33;4080039;86;21058;-84
2022/07/28 10:03:44;;;;;;;4.05;1.70;;;;;;;24.96;59.24;99339.20;4085766;85;21563;-84
2022/07/28 10:10:06;;;;;;;3.25;1.85;;;;;;;24.91;58.99;99336.39;4087548;86;21613;-85
2022/07/28 10:16:11;;;;;;;3.40;1.90;;;;;;;25.31;56.32;99342.67;4095577;84;21024;-84
2022/07/28 10:22:16;;;;;;;4.50;1.53;;;;;;;25.44;54.82;99336.34;4093933;84;21122;-84
2022/07/28 10:28:21;;;;;;;3.50;1.90;;;;;;;25.54;56.27;99332.27;4086957;86;21058;-83
2022/07/28 10:34:28;;;;;;;3.05;1.67;;;;;;;25.99;55.89;99330.06;4072875;85;21070;-84
2022/07/28 10:40:40;;;;;;;4.08;1.40;;;;;;;26.28;55.12;99330.95;4056981;84;21640;-83
2022/07/28 10:46:42;;;;;;;3.52;1.47;;;;;;;25.89;54.07;99327.89;4078090;84;21523;-83
2022/07/28 10:52:45;;;;;;;4.83;1.50;;;;;;;26.47;53.92;99325.43;4080097;85;21148;-83
2022/07/28 10:59:01;;;;;;;6.28;1.80;;;;;;;26.13;53.95;99316.80;4080949;84;21062;-84
2022/07/28 11:05:03;;;;;;;3.92;1.60;;;;;;;25.99;53.62;99321.64;4074483;86;21048;-83
2022/07/28 11:11:05;;;;;;;2.98;1.60;;;;;;;26.06;52.91;99312.30;4071728;86;21972;-83
2022/07/28 11:17:17;;;;;;;2.67;1.70;;;;;;;26.45;51.05;99308.28;4056582;86;21014;-81
2022/07/28 11:23:45;;;;;;;3.55;1.60;;;;;;;27.12;51.99;99295.91;4081922;85;21573;-84
2022/07/28 11:29:46;;;;;;;3.30;1.65;;;;;;;27.57;48.05;99299.16;4076549;84;21074;-83
2022/07/28 11:35:54;;;;;;;4.42;2.22;;;;;;;27.82;49.41;99283.75;4073846;86;21105;-84
2022/07/28 11:41:58;;;;;;;4.17;1.62;;;;;;;28.06;49.33;99286.50;4078647;84;21728;-83
2022/07/28 11:48:20;;;;;;;9.75;2.12;;;;;;;27.90;48.47;99279.33;4077653;84;21152;-84
2022/07/28 11:54:22;;;;;;;5.35;1.67;;;;;;;27.90;48.56;99277.92;4074523;86;21018;-82
2022/07/28 12:00:25;;;;;;;1.70;1.32;;;;;;;27.86;47.89;99268.85;4081866;84;21633;-83
2022/07/28 12:06:39;;;;;;;4.60;1.50;;;;;;;27.65;47.60;99274.23;4077207;84;21038;-84
2022/07/28 12:12:46;;;;;;;6.55;1.95;;;;;;;27.56;47.28;99279.30;4084886;84;21026;-83
2022/07/28 12:18:51;;;;;;;2.62;1.55;;;;;;;26.98;46.42;99272.75;4076630;86;21038;-83
2022/07/28 12:24:56;;;;;;;3.10;1.70;;;;;;;26.66;46.87;99270.14;4066804;86;21587;-83
2022/07/28 12:31:11;;;;;;;4.28;2.05;;;;;;;26.33;47.25;99267.93;4073005;86;21443;-83
2022/07/28 12:37:13;;;;;;;7.28;1.80;;;;;;;26.17;47.37;99258.48;4125939;86;21050;-84
2022/07/28 12:43:25;;;;;;;2.60;1.50;;;;;;;26.00;47.71;99258.70;4088994;86;21197;-83
2022/07/28 12:49:27;;;;;;;3.42;1.75;;;;;;;25.68;47.23;99247.56;4090152;86;21038;-85
2022/07/28 12:55:29;;;;;;;3.47;2.00;;;;;;;25.46;47.71;99246.19;4088940;84;21037;-85
2022/07/28 13:01:51;;;;;;;3.33;1.95;;;;;;;25.30;47.79;99260.48;4096255;86;21026;-85
2022/07/28 13:08:04;;;;;;;6.87;2.30;;;;;;;24.99;47.97;99234.05;4082472;86;22060;-85
2022/07/28 13:14:05;;;;;;;2.90;2.05;;;;;;;25.11;48.27;99247.11;4094629;86;21035;-85
2022/07/28 13:20:14;;;;;;;2.77;2.45;;;;;;;25.02;48.01;99244.92;4077981;86;21002;-85
2022/07/28 13:26:16;;;;;;;5.60;2.10;;;;;;;24.87;48.60;99248.19;4093171;86;22237;-85
2022/07/28 13:32:17;;;;;;;2.95;2.45;;;;;;;24.70;48.82;99242.08;4083864;84;21081;-85
2022/07/28 13:38:19;;;;;;;5.83;2.50;;;;;;;24.50;48.78;99219.31;4083012;85;21026;-85
2022/07/28 13:44:20;;;;;;;5.22;2.72;;;;;;;24.50;48.78;99219.31;4077847;86;21031;-85
2022/07/28 13:50:21;;;;;;;3.05;2.40;;;;;;;24.54;48.82;99230.52;4070341;86;21141;-86
2022/07/28 13:56:42;;;;;;;2.95;2.37;;;;;;;24.54;48.80;99233.95;4074894;86;21023;-86
2022/07/28 14:02:44;;;;;;;5.05;2.50;;;;;;;24.34;49.80;99239.95;4082239;86;21902;-85
2022/07/28 14:08:45;;;;;;;6.30;3.00;;;;;;;24.33;49.39;99235.60;4087008;86;21034;-85
2022/07/28 14:14:47;;;;;;;4.15;2.27;;;;;;;24.37;49.81;99228.44;4078377;86;21345;-87
2022/07/28 14:20:48;;;;;;;3.20;2.10;;;;;;;24.38;49.83;99223.78;4077004;86;21030;-85
2022/07/28 14:26:49;;;;;;;4.22;2.33;;;;;;;24.38;50.32;99218.83;4084091;86;21097;-86
2022/07/28 14:32:52;;;;;;;3.77;2.67;;;;;;;24.35;50.69;99213.52;4084088;85;21549;-85
2022/07/28 14:38:53;;;;;;;3.12;2.20;;;;;;;24.36;49.46;99211.50;4082909;84;21094;-86
2022/07/28 14:44:58;;;;;;;5.03;2.27;;;;;;;24.26;49.83;99206.50;4084146;84;22342;-85
2022/07/28 14:51:00;;;;;;;5.00;2.72;;;;;;;24.24;50.57;99204.02;4086624;84;21032;-85
2022/07/28 14:57:03;;;;;;;3.80;2.22;;;;;;;24.19;50.13;99200.42;4077556;86;22091;-85
2022/07/28 15:03:05;;;;;;;4.55;2.80;;;;;;;24.21;49.69;99194.52;4076729;86;21053;-84
2022/07/28 15:09:08;;;;;;;4.70;2.87;;;;;;;24.19;49.85;99191.42;4082610;86;21097;-85
2022/07/28 15:15:10;;;;;;;4.42;2.67;;;;;;;24.26;49.46;99192.52;4075998;86;21023;-85
2022/07/28 15:21:15;;;;;;;5.05;2.80;;;;;;;24.23;48.95;99183.66;4078882;86;21682;-86
2022/07/28 15:27:16;;;;;;;4.97;2.52;;;;;;;24.20;49.65;99177.58;4081263;86;22249;-85
2022/07/28 15:33:18;;;;;;;4.90;3.15;;;;;;;24.12;50.08;99179.11;4078067;85;21085;-85
2022/07/28 15:39:20;;;;;;;4.15;2.50;;;;;;;24.06;50.43;99176.77;4096321;84;21063;-86
2022/07/28 15:45:21;;;;;;;3.72;2.15;;;;;;;23.96;49.78;99185.56;4091971;86;21683;-85
2022/07/28 15:51:22;;;;;;;4.10;2.40;;;;;;;23.89;49.95;99181.02;4144307;85;21006;-85
2022/07/28 15:57:24;;;;;;;3.70;2.75;;;;;;;23.87;49.85;99183.48;4125166;84;218197;-86
2022/07/28 16:03:25;;;;;;;7.05;2.45;;;;;;;23.86;49.73;99179.76;4251789;82;21117;-85
2022/07/28 16:09:26;;;;;;;4.40;2.85;;;;;;;23.81;49.94;99178.34;4259294;82;21077;-85
2022/07/28 16:15:28;;;;;;;7.42;2.60;;;;;;;23.75;50.18;99175.99;4254309;82;20971;-84
2022/07/28 16:21:29;;;;;;;2.95;2.30;;;;;;;23.70;50.24;99175.19;4237216;82;22079;-84
2022/07/28 16:27:30;;;;;;;3.42;2.30;;;;;;;23.60;50.54;99179.16;4243626;82;21137;-87
2022/07/28 16:33:31;;;;;;;4.33;2.40;;;;;;;23.55;50.77;99181.17;4158402;84;21777;-88
2022/07/28 16:39:34;;;;;;;2.90;2.58;;;;;;;23.48;50.56;99182.04;4154046;83;21051;-86
2022/07/28 16:45:35;;;;;;;3.22;2.70;;;;;;;23.40;50.71;99177.98;4143451;84;21158;-84
2022/07/28 16:51:37;;;;;;;3.00;2.12;;;;;;;23.38;50.89;99179.83;4154091;84;21137;-85
2022/07/28 16:57:38;;;;;;;4.30;2.35;;;;;;;23.34;51.09;99179.78;4046987;82;9999807;-86
2022/07/28 17:03:39;;;;;;;5.33;2.75;;;;;;;23.24;51.35;99176.91;4103754;85;21111;-85
2022/07/28 17:09:41;;;;;;;5.40;2.80;;;;;;;23.16;51.66;99176.24;4153901;84;21090;-85
2022/07/28 17:15:42;;;;;;;5.95;2.70;;;;;;;23.06;51.61;99189.36;4136182;84;21927;-85
2022/07/28 17:21:44;;;;;;;6.17;3.25;;;;;;;22.97;51.61;99186.47;4144176;84;21054;-85
2022/07/28 17:27:45;;;;;;;4.33;2.33;;;;;;;22.91;51.94;99188.92;4176603;84;21015;-85
2022/07/28 17:33:47;;;;;;;4.67;2.40;;;;;;;22.83;52.12;99189.00;4136900;84;21085;-85
2022/07/28 17:39:48;;;;;;;4.33;2.40;;;;;;;22.75;52.45;99191.88;4239234;82;21095;-85
2022/07/28 17:45:50;;;;;;;6.42;2.58;;;;;;;22.64;52.71;99194.25;4253139;82;21008;-85
2022/07/28 17:51:51;;;;;;;3.00;2.30;;;;;;;22.53;53.02;99204.39;4255978;82;21521;-85
2022/07/28 17:57:52;;;;;;;3.92;2.50;;;;;;;22.43;53.31;99212.45;4134088;82;10000283;-84
2022/07/28 18:03:54;;;;;;;3.55;2.42;;;;;;;22.30;53.68;99215.11;4250240;82;21020;-86
2022/07/28 18:09:56;;;;;;;6.50;2.12;;;;;;;22.16;54.01;99221.14;4251647;82;21056;-85
2022/07/28 18:15:57;;;;;;;5.58;2.83;;;;;;;22.02;54.36;99217.41;4254131;82;21991;-85
2022/07/28 18:21:59;;;;;;;4.25;2.45;;;;;;;21.82;54.62;99213.44;4254259;82;21028;-85
2022/07/28 18:28:00;;;;;;;7.03;3.60;;;;;;;21.63;55.12;99212.98;4273000;82;21809;-84
2022/07/28 18:34:02;;;;;;;6.30;4.30;;;;;;;21.52;55.73;99216.70;4280567;82;20975;-84
2022/07/28 18:40:05;;;;;;;10.95;4.20;;;;;;;21.37;56.27;99221.92;4212718;82;21702;-85
2022/07/28 18:46:07;;;;;;;7.92;4.15;;;;;;;21.17;56.99;99233.05;4189959;84;21116;-84
2022/07/28 18:52:08;;;;;;;6.87;4.37;;;;;;;20.97;57.50;99229.63;4183656;84;21903;-84
2022/07/28 18:58:09;;;;;;;7.58;3.52;;;;;;;20.74;58.05;99239.53;4063669;84;10000020;-84
2022/07/28 19:04:11;;;;;;;7.22;3.52;;;;;;;20.56;58.60;99242.00;4177170;84;21554;-85
2022/07/28 19:10:12;;;;;;;14.38;4.70;;;;;;;20.37;58.96;99245.05;4181355;84;21037;-84
2022/07/28 19:16:13;;;;;;;8.78;4.42;;;;;;;20.17;59.38;99253.44;4179529;84;21001;-84
2022/07/28 19:22:15;;;;;;;10.18;5.80;;;;;;;20.03;59.85;99249.57;4151299;85;20989;-84
2022/07/28 19:28:17;;;;;;;7.22;4.90;;;;;;;19.91;60.07;99246.69;4180214;84;21009;-84
2022/07/28 19:34:18;;;;;;;11.03;5.00;;;;;;;19.82;60.55;99259.79;4177965;84;21531;-84
2022/07/28 19:40:20;;;;;;;7.70;4.72;;;;;;;19.67;61.05;99258.51;4166700;84;21097;-83
2022/07/28 19:46:22;;;;;;;8.93;5.35;;;;;;;19.44;62.19;99259.20;4188088;83;21047;-83
2022/07/28 19:52:24;;;;;;;10.55;5.22;;;;;;;19.21;62.58;99256.47;4252801;82;21106;-85
2022/07/28 19:58:25;;;;;;;9.13;4.67;;;;;;;19.07;62.83;99263.08;4153965;82;10000081;-83
2022/07/28 20:04:27;;;;;;;7.97;4.60;;;;;;;18.97;63.20;99266.03;4251901;82;21028;-83
2022/07/28 20:10:28;;;;;;;6.87;5.05;;;;;;;18.94;63.32;99274.61;4253651;82;21515;-84
2022/07/28 20:16:30;;;;;;;9.25;4.85;;;;;;;18.83;63.84;99276.00;4252740;82;21068;-84
2022/07/28 20:22:31;;;;;;;8.35;4.30;;;;;;;18.74;64.18;99274.55;4259323;82;21514;-84
2022/07/28 20:28:32;;;;;;;12.20;4.75;;;;;;;18.65;64.50;99278.47;4251179;82;21066;-83
2022/07/28 20:34:33;;;;;;;7.75;4.37;;;;;;;18.50;64.87;99274.97;4245543;82;21052;-83
2022/07/28 20:40:35;;;;;;;6.55;4.65;;;;;;;18.28;65.01;99283.41;4247359;82;21036;-84
2022/07/28 20:46:36;;;;;;;8.73;5.42;;;;;;;18.15;65.84;99274.12;4227486;83;21114;-83
2022/07/28 20:52:37;;;;;;;8.88;5.67;;;;;;;18.07;66.09;99282.35;4161680;84;21022;-83
2022/07/28 20:58:40;;;;;;;10.60;6.40;;;;;;;17.81;66.48;99281.71;4184732;84;21674;-83
2022/07/28 21:04:41;;;;;;;13.32;7.87;;;;;;;17.71;67.53;99286.80;4222442;83;21015;-83
2022/07/28 21:10:44;;;;;;;15.88;7.92;;;;;;;17.46;67.80;99291.86;4220966;83;21694;-84
2022/07/28 21:16:45;;;;;;;14.53;6.80;;;;;;;17.29;68.36;99292.20;4235425;83;20992;-83
2022/07/28 21:22:46;;;;;;;12.80;5.75;;;;;;;17.21;69.62;99294.27;4161089;84;21025;-82
2022/07/28 21:35:08;;;;;;;8.78;5.50;;;;;;;17.06;70.09;99296.22;4219205;83;21079;-83
2022/07/28 21:41:09;;;;;;;9.45;5.80;;;;;;;16.83;70.16;99297.44;4210014;82;21069;-83
2022/07/28 21:47:10;;;;;;;8.38;5.45;;;;;;;16.75;70.88;99306.98;4213368;83;22012;-82
2022/07/28 21:53:11;;;;;;;10.32;5.47;;;;;;;16.66;71.52;99310.20;4223682;83;21888;-83
2022/07/28 21:59:13;;;;;;;9.43;5.83;;;;;;;16.64;71.80;99308.46;4173908;83;21076;-83
2022/07/28 22:05:14;;;;;;;6.28;4.90;;;;;;;16.62;72.08;99315.57;4194844;83;21358;-83
2022/07/28 22:11:16;;;;;;;10.10;5.97;;;;;;;16.48;72.48;99315.68;4191310;83;22004;-83
2022/07/28 22:17:19;;;;;;;10.15;5.65;;;;;;;16.42;72.93;99314.52;4198439;83;21031;-82
2022/07/28 22:23:20;;;;;;;9.33;5.92;;;;;;;16.33;73.76;99317.75;4221378;83;21059;-82
2022/07/28 22:29:21;;;;;;;8.23;5.67;;;;;;;16.17;73.57;99322.98;4202491;83;21003;-83
2022/07/28 22:35:23;;;;;;;8.45;5.03;;;;;;;16.04;74.14;99315.55;4188025;83;21042;-82
2022/07/28 22:41:24;;;;;;;8.95;5.50;;;;;;;16.05;74.89;99317.13;4202188;83;21063;-83
2022/07/28 22:47:26;;;;;;;9.15;6.05;;;;;;;16.03;74.86;99311.22;4204330;83;21056;-83
2022/07/28 22:53:27;;;;;;;6.30;4.72;;;;;;;16.08;75.38;99310.80;4201883;83;22013;-82
2022/07/28 22:59:28;;;;;;;7.67;4.95;;;;;;;16.06;75.75;99325.02;4189696;83;21112;-82
2022/07/28 23:05:29;;;;;;;7.42;5.15;;;;;;;15.89;76.67;99325.10;4202255;83;21092;-83
2022/07/28 23:11:31;;;;;;;10.53;5.40;;;;;;;15.83;77.20;99329.47;4201601;83;21039;-83
2022/07/28 23:17:32;;;;;;;13.90;6.20;;;;;;;15.82;76.58;99330.67;4201246;83;20998;-83
2022/07/28 23:23:34;;;;;;;7.33;5.60;;;;;;;15.88;77.01;99332.59;4215682;83;21003;-82
2022/07/28 23:29:35;;;;;;;9.98;6.17;;;;;;;15.93;77.23;99323.13;4234124;84;21494;-83
2022/07/28 23:35:39;;;;;;;11.00;6.15;;;;;;;15.96;77.67;99325.84;4207107;84;20982;-83
2022/07/28 23:41:40;;;;;;;9.48;5.90;;;;;;;15.99;77.58;99328.41;4170068;84;21002;-84
2022/07/28 23:47:41;;;;;;;11.63;6.05;;;;;;;15.93;78.31;99329.41;4245985;82;22427;-82
2022/07/28 23:53:43;;;;;;;10.63;5.83;;;;;;;15.97;78.73;99326.64;4232397;83;21529;-82
2022/07/28 23:59:44;;;;;;;10.48;5.83;;;;;;;15.96;78.72;99336.89;4225132;83;21595;-82
